createdAt,value
2022-08-25T00:00:09.967Z,101472.50
2022-08-25T00:02:55.299Z,101471.22
2022-08-25T00:05:35.466Z,101462.47
2022-08-25T00:08:16.224Z,101475.75
2022-08-25T00:11:03.389Z,101473.44
2022-08-25T00:13:46.505Z,101477.09
2022-08-25T00:16:28.439Z,101472.94
2022-08-25T00:19:10.238Z,101475.81
2022-08-25T00:21:49.952Z,101472.22
2022-08-25T00:24:49.000Z,101476.16
2022-08-25T00:27:28.776Z,101477.38
2022-08-25T00:30:10.237Z,101476.09
2022-08-25T00:32:57.339Z,101479.41
2022-08-25T00:35:36.353Z,101476.63
2022-08-25T00:38:17.684Z,101474.50
2022-08-25T00:41:06.665Z,101474.25
2022-08-25T00:43:49.658Z,101463.88
2022-08-25T00:46:31.426Z,101470.47
2022-08-25T00:49:25.090Z,101470.00
2022-08-25T00:52:09.924Z,101467.72
2022-08-25T00:54:52.751Z,101471.81
2022-08-25T00:57:35.200Z,101465.16
2022-08-25T01:00:21.762Z,101466.66
2022-08-25T01:03:04.582Z,101459.78
2022-08-25T01:05:46.514Z,101466.78
2022-08-25T01:08:29.111Z,101468.34
2022-08-25T01:11:11.493Z,101466.88
2022-08-25T01:13:54.223Z,101463.53
2022-08-25T01:16:35.748Z,101454.44
2022-08-25T01:19:16.843Z,101461.22
2022-08-25T01:21:57.267Z,101461.81
2022-08-25T01:24:42.113Z,101459.03
2022-08-25T01:27:22.616Z,101462.56
2022-08-25T01:30:02.544Z,101456.53
2022-08-25T01:32:42.208Z,101457.75
2022-08-25T01:35:22.041Z,101463.50
2022-08-25T01:38:04.863Z,101454.16
2022-08-25T01:40:44.832Z,101460.72
2022-08-25T01:43:31.562Z,101461.09
2022-08-25T01:46:10.894Z,101459.88
2022-08-25T01:48:52.733Z,101458.03
2022-08-25T01:51:36.304Z,101460.91
2022-08-25T01:54:19.840Z,101453.84
2022-08-25T01:57:00.601Z,101454.63
2022-08-25T01:59:41.253Z,101457.31
2022-08-25T02:02:20.933Z,101456.28
2022-08-25T02:05:00.745Z,101458.72
2022-08-25T02:07:42.230Z,101461.22
2022-08-25T02:10:24.001Z,101451.47
2022-08-25T02:13:05.906Z,101447.94
2022-08-25T02:15:53.000Z,101444.59
2022-08-25T02:18:34.999Z,101450.34
2022-08-25T02:21:15.739Z,101452.19
2022-08-25T02:23:54.543Z,101454.25
2022-08-25T02:26:37.199Z,101456.09
2022-08-25T02:29:18.633Z,101451.47
2022-08-25T02:32:19.604Z,101454.81
2022-08-25T02:34:58.977Z,101459.38
2022-08-25T02:37:38.406Z,101453.16
2022-08-25T02:40:18.643Z,101453.53
2022-08-25T02:42:57.334Z,101455.19
2022-08-25T02:45:39.903Z,101448.13
2022-08-25T02:48:19.704Z,101457.63
2022-08-25T02:51:01.043Z,101447.19
2022-08-25T02:53:42.930Z,101455.63
2022-08-25T02:56:26.550Z,101455.16
2022-08-25T02:59:06.881Z,101454.50
2022-08-25T03:01:48.301Z,101450.34
2022-08-25T03:04:30.785Z,101452.75
2022-08-25T03:07:11.996Z,101448.56
2022-08-25T03:10:18.332Z,101443.75
2022-08-25T03:12:56.298Z,101444.13
2022-08-25T03:15:37.672Z,101438.91
2022-08-25T03:18:17.125Z,101446.34
2022-08-25T03:20:59.384Z,101442.34
2022-08-25T03:23:43.217Z,101443.72
2022-08-25T03:26:40.650Z,101447.44
2022-08-25T03:29:21.155Z,101440.75
2022-08-25T03:32:05.181Z,101441.50
2022-08-25T03:35:08.399Z,101445.41
2022-08-25T03:37:48.637Z,101441.00
2022-08-25T03:40:28.884Z,101439.69
2022-08-25T03:43:08.985Z,101440.72
2022-08-25T03:45:49.761Z,101442.75
2022-08-25T03:48:31.996Z,101440.44
2022-08-25T03:51:20.347Z,101444.53
2022-08-25T03:54:03.539Z,101440.50
2022-08-25T03:56:45.517Z,101438.66
2022-08-25T03:59:27.091Z,101440.69
2022-08-25T04:02:08.435Z,101437.34
2022-08-25T04:04:50.211Z,101441.41
2022-08-25T04:07:29.416Z,101444.28
2022-08-25T04:10:08.433Z,101446.69
2022-08-25T04:12:49.258Z,101445.44
2022-08-25T04:15:30.268Z,101437.84
2022-08-25T04:18:08.551Z,101448.13
2022-08-25T04:20:52.421Z,101448.97
2022-08-25T04:23:34.580Z,101441.06
2022-08-25T04:26:16.665Z,101435.03
2022-08-25T04:28:58.080Z,101438.41
2022-08-25T04:31:40.886Z,101434.75
2022-08-25T04:34:29.379Z,101432.19
2022-08-25T04:37:10.961Z,101430.19
2022-08-25T04:39:50.650Z,101427.00
2022-08-25T04:42:31.199Z,101432.38
2022-08-25T04:45:12.116Z,101427.00
2022-08-25T04:47:54.860Z,101423.47
2022-08-25T04:50:34.673Z,101427.00
2022-08-25T04:53:14.473Z,101420.63
2022-08-25T04:55:54.262Z,101426.34
2022-08-25T04:58:34.306Z,101427.19
2022-08-25T05:01:17.098Z,101423.84
2022-08-25T05:04:00.349Z,101432.09
2022-08-25T05:06:42.220Z,101436.16
2022-08-25T05:09:25.201Z,101438.84
2022-08-25T05:12:06.454Z,101435.63
2022-08-25T05:14:44.577Z,101436.63
2022-08-25T05:17:25.911Z,101430.06
2022-08-25T05:20:06.301Z,101429.03
2022-08-25T05:22:47.983Z,101435.44
2022-08-25T05:25:28.209Z,101429.38
2022-08-25T05:28:07.998Z,101435.38
2022-08-25T05:30:50.186Z,101425.09
2022-08-25T05:33:31.601Z,101420.88
2022-08-25T05:36:13.608Z,101413.94
2022-08-25T05:38:53.896Z,101416.09
2022-08-25T05:41:33.891Z,101406.66
2022-08-25T05:44:15.114Z,101400.53
2022-08-25T05:46:59.788Z,101410.94
2022-08-25T05:49:53.712Z,101405.66
2022-08-25T05:52:34.057Z,101404.28
2022-08-25T05:55:15.435Z,101401.50
2022-08-25T05:57:55.461Z,101393.53
2022-08-25T06:00:35.014Z,101394.09
2022-08-25T06:03:14.985Z,101392.34
2022-08-25T06:05:54.629Z,101384.81
2022-08-25T06:08:34.736Z,101384.53
2022-08-25T06:11:16.386Z,101389.28
2022-08-25T06:13:54.420Z,101397.25
2022-08-25T06:16:33.983Z,101393.06
2022-08-25T06:19:16.782Z,101393.03
2022-08-25T06:22:00.554Z,101397.06
2022-08-25T06:24:42.168Z,101394.56
2022-08-25T06:27:22.696Z,101397.41
2022-08-25T06:30:08.055Z,101395.50
2022-08-25T06:32:49.159Z,101390.78
2022-08-25T06:35:28.636Z,101400.03
2022-08-25T06:38:08.319Z,101393.47
2022-08-25T06:40:52.041Z,101392.72
2022-08-25T06:43:35.499Z,101393.41
2022-08-25T06:46:17.857Z,101393.69
2022-08-25T06:48:57.588Z,101388.38
2022-08-25T06:51:36.983Z,101390.97
2022-08-25T06:54:16.981Z,101386.66
2022-08-25T06:56:56.921Z,101392.72
2022-08-25T06:59:38.228Z,101387.16
2022-08-25T07:02:35.613Z,101397.81
2022-08-25T07:05:26.870Z,101393.03
2022-08-25T07:08:13.894Z,101382.50
2022-08-25T07:10:55.171Z,101392.06
2022-08-25T07:13:35.287Z,101391.28
2022-08-25T07:16:16.649Z,101391.28
2022-08-25T07:19:11.431Z,101387.13
2022-08-25T07:21:55.212Z,101387.53
2022-08-25T07:24:37.020Z,101381.69
2022-08-25T07:27:18.457Z,101376.09
2022-08-25T07:29:59.465Z,101382.97
2022-08-25T07:32:41.910Z,101380.00
2022-08-25T07:35:26.370Z,101386.03
2022-08-25T07:38:10.107Z,101386.16
2022-08-25T07:40:54.745Z,101386.47
2022-08-25T07:43:41.679Z,101390.19
2022-08-25T07:46:24.337Z,101390.47
2022-08-25T07:49:04.876Z,101392.47
2022-08-25T07:52:05.718Z,101396.03
2022-08-25T07:54:45.767Z,101398.97
2022-08-25T07:57:28.266Z,101402.34
2022-08-25T08:00:10.564Z,101407.50
2022-08-25T08:02:53.188Z,101401.13
2022-08-25T08:05:33.883Z,101402.38
2022-08-25T08:08:16.407Z,101403.63
2022-08-25T08:11:04.616Z,101394.88
2022-08-25T08:13:48.009Z,101394.03
2022-08-25T08:16:32.872Z,101386.72
2022-08-25T08:19:13.121Z,101384.84
2022-08-25T08:22:05.803Z,101395.97
2022-08-25T08:24:54.554Z,101394.94
2022-08-25T08:27:36.974Z,101392.75
2022-08-25T08:30:16.820Z,101398.47
2022-08-25T08:33:40.717Z,101402.56
2022-08-25T08:36:22.506Z,101398.00
2022-08-25T08:39:06.297Z,101393.31
2022-08-25T08:42:16.911Z,101392.03
2022-08-25T08:45:09.558Z,101390.84
2022-08-25T08:47:57.991Z,101384.47
2022-08-25T08:50:41.133Z,101380.84
2022-08-25T08:53:26.753Z,101382.47
2022-08-25T08:56:17.775Z,101381.91
2022-08-25T08:59:21.418Z,101391.06
2022-08-25T09:02:06.039Z,101387.81
2022-08-25T09:04:55.723Z,101386.50
2022-08-25T09:07:42.273Z,101381.81
2022-08-25T09:10:24.298Z,101384.25
2022-08-25T09:13:13.225Z,101376.94
2022-08-25T09:16:20.592Z,101377.78
2022-08-25T09:19:28.733Z,101372.50
2022-08-25T09:22:34.995Z,101361.84
2022-08-25T09:25:39.680Z,101370.31
2022-08-25T09:28:25.300Z,101370.00
2022-08-25T09:31:17.689Z,101366.69
2022-08-25T09:33:57.994Z,101355.34
2022-08-25T09:36:38.462Z,101356.44
2022-08-25T09:39:21.114Z,101351.81
2022-08-25T09:42:01.238Z,101351.84
2022-08-25T09:44:43.508Z,101354.44
2022-08-25T09:47:28.080Z,101349.66
2022-08-25T09:50:16.319Z,101349.97
2022-08-25T09:53:18.752Z,101332.63
2022-08-25T09:56:06.703Z,101340.34
2022-08-25T09:58:46.529Z,101343.16
2022-08-25T10:01:28.612Z,101341.53
2022-08-25T10:04:20.246Z,101339.59
2022-08-25T10:07:04.188Z,101331.00
2022-08-25T10:09:54.112Z,101330.00
2022-08-25T10:12:37.211Z,101323.81
2022-08-25T10:15:36.850Z,101323.06
2022-08-25T10:18:25.700Z,101322.22
2022-08-25T10:21:12.082Z,101312.66
2022-08-25T10:23:55.776Z,101310.00
2022-08-25T10:26:43.839Z,101303.78
2022-08-25T10:29:34.538Z,101299.34
2022-08-25T10:32:18.106Z,101294.41
2022-08-25T10:35:00.085Z,101276.22
2022-08-25T10:37:47.017Z,101293.03
2022-08-25T10:40:35.961Z,101284.88
2022-08-25T10:43:23.755Z,101269.06
2022-08-25T10:46:12.006Z,101272.41
2022-08-25T10:49:09.299Z,101263.53
2022-08-25T10:51:56.008Z,101271.16
2022-08-25T10:54:42.193Z,101265.22
2022-08-25T10:57:36.968Z,101247.72
2022-08-25T11:00:22.660Z,101243.25
2022-08-25T11:03:18.372Z,101240.47
2022-08-25T11:06:15.238Z,101235.91
2022-08-25T11:08:59.039Z,101232.72
2022-08-25T11:11:56.352Z,101238.78
2022-08-25T11:14:40.032Z,101226.34
2022-08-25T11:17:47.354Z,101216.94
2022-08-25T11:20:39.123Z,101218.53
2022-08-25T11:23:23.881Z,101217.03
2022-08-25T11:26:11.053Z,101200.59
2022-08-25T11:28:55.619Z,101220.63
2022-08-25T11:31:41.675Z,101210.09
2022-08-25T11:34:22.856Z,101210.19
2022-08-25T11:37:11.053Z,101204.47
2022-08-25T11:40:08.745Z,101209.34
2022-08-25T11:43:01.548Z,101200.28
2022-08-25T11:45:54.070Z,101203.66
2022-08-25T11:48:41.843Z,101203.25
2022-08-25T11:51:33.852Z,101203.84
2022-08-25T11:54:24.793Z,101196.78
2022-08-25T11:57:27.758Z,101205.00
2022-08-25T12:00:14.908Z,101183.88
2022-08-25T12:02:58.399Z,101188.00
2022-08-25T12:06:18.688Z,101191.84
2022-08-25T12:09:22.825Z,101191.84
2022-08-25T12:12:28.789Z,101187.69
2022-08-25T12:15:21.748Z,101185.13
2022-08-25T12:18:14.064Z,101181.75
2022-08-25T12:21:18.063Z,101179.16
2022-08-25T12:24:15.067Z,101173.44
2022-08-25T12:26:59.336Z,101166.81
2022-08-25T12:29:43.215Z,101169.16
2022-08-25T12:32:40.593Z,101173.88
2022-08-25T12:35:32.737Z,101168.19
2022-08-25T12:38:16.770Z,101168.25
2022-08-25T12:41:01.484Z,101158.91
2022-08-25T12:43:43.655Z,101157.47
2022-08-25T12:46:39.303Z,101162.59
2022-08-25T12:49:35.789Z,101149.69
2022-08-25T12:52:19.116Z,101149.78
2022-08-25T12:55:05.370Z,101161.91
2022-08-25T12:57:47.291Z,101156.97
2022-08-25T13:00:29.915Z,101143.97
2022-08-25T13:03:26.366Z,101144.56
2022-08-25T13:06:22.247Z,101129.69
2022-08-25T13:09:47.852Z,101130.22
2022-08-25T13:12:35.132Z,101138.25
2022-08-25T13:15:29.222Z,101131.94
2022-08-25T13:18:17.152Z,101133.00
2022-08-25T13:21:05.457Z,101125.81
2022-08-25T13:23:47.541Z,101119.88
2022-08-25T13:26:35.015Z,101113.63
2022-08-25T13:29:17.857Z,101121.88
2022-08-25T13:32:12.717Z,101121.25
2022-08-25T13:35:09.774Z,101115.66
2022-08-25T13:37:50.129Z,101115.75
2022-08-25T13:40:33.667Z,101105.84
2022-08-25T13:43:15.452Z,101109.25
2022-08-25T13:45:54.282Z,101099.81
2022-08-25T13:48:39.132Z,101095.59
2022-08-25T13:51:24.374Z,101094.13
2022-08-25T13:54:26.337Z,101100.06
2022-08-25T13:57:08.416Z,101105.22
2022-08-25T13:59:51.194Z,101099.84
2022-08-25T14:02:44.086Z,101090.53
2022-08-25T14:05:35.934Z,101080.44
2022-08-25T14:08:32.859Z,101082.44
2022-08-25T14:11:15.475Z,101071.75
2022-08-25T14:14:01.866Z,101070.88
2022-08-25T14:16:51.122Z,101075.38
2022-08-25T14:19:35.309Z,101068.19
2022-08-25T14:22:14.644Z,101064.94
2022-08-25T14:24:55.596Z,101051.38
2022-08-25T14:28:13.879Z,101062.28
2022-08-25T14:31:09.212Z,101066.19
2022-08-25T14:33:53.053Z,101053.50
2022-08-25T14:36:36.633Z,101060.34
2022-08-25T14:39:18.493Z,101055.97
2022-08-25T14:42:01.143Z,101047.16
2022-08-25T14:44:40.760Z,101042.53
2022-08-25T14:47:20.559Z,101034.13
2022-08-25T14:50:02.384Z,101038.00
2022-08-25T14:52:42.804Z,101039.63
2022-08-25T14:55:31.206Z,101035.75
2022-08-25T14:58:12.479Z,101031.13
2022-08-25T15:00:54.769Z,101022.03
2022-08-25T15:03:39.193Z,101028.94
2022-08-25T15:06:18.865Z,101023.44
2022-08-25T15:09:11.957Z,101021.81
2022-08-25T15:11:56.992Z,101018.53
2022-08-25T15:14:40.421Z,101013.84
2022-08-25T15:17:20.323Z,101006.44
2022-08-25T15:20:00.476Z,101014.16
2022-08-25T15:22:45.299Z,101007.28
2022-08-25T15:25:25.730Z,101003.72
2022-08-25T15:28:10.190Z,101004.28
2022-08-25T15:31:04.638Z,101003.72
2022-08-25T15:33:50.207Z,100994.44
2022-08-25T15:36:31.195Z,100993.31
2022-08-25T15:39:23.406Z,100998.25
2022-08-25T15:42:06.744Z,100987.53
2022-08-25T15:44:52.849Z,100984.81
2022-08-25T15:47:33.421Z,100996.56
2022-08-25T15:50:20.264Z,100994.13
2022-08-25T15:53:01.536Z,100992.72
2022-08-25T15:55:41.604Z,100987.53
2022-08-25T15:58:22.246Z,100987.78
2022-08-25T16:01:04.539Z,100985.03
2022-08-25T16:03:45.779Z,100984.50
2022-08-25T16:06:27.410Z,100981.75
2022-08-25T16:09:10.038Z,100981.22
2022-08-25T16:11:56.108Z,100970.16
2022-08-25T16:14:37.770Z,100973.53
2022-08-25T16:17:18.984Z,100967.50
2022-08-25T16:19:57.037Z,100965.03
2022-08-25T16:22:36.991Z,100970.25
2022-08-25T16:25:16.762Z,100966.97
2022-08-25T16:28:14.662Z,100973.56
2022-08-25T16:30:56.060Z,100963.13
2022-08-25T16:33:37.623Z,100958.94
2022-08-25T16:36:17.971Z,100962.78
2022-08-25T16:39:00.867Z,100958.41
2022-08-25T16:41:42.092Z,100953.47
2022-08-25T16:44:22.950Z,100955.09
2022-08-25T16:47:04.675Z,100948.28
2022-08-25T16:49:48.847Z,100947.44
2022-08-25T16:52:47.435Z,100949.88
2022-08-25T16:55:39.460Z,100944.34
2022-08-25T16:58:20.978Z,100939.84
2022-08-25T17:01:07.019Z,100943.72
2022-08-25T17:03:48.380Z,100939.66
2022-08-25T17:06:30.583Z,100944.28
2022-08-25T17:09:12.596Z,100947.50
2022-08-25T17:11:52.240Z,100934.59
2022-08-25T17:14:33.453Z,100938.94
2022-08-25T17:17:11.992Z,100934.78
2022-08-25T17:19:53.560Z,100947.34
2022-08-25T17:22:34.441Z,100948.94
2022-08-25T17:25:14.611Z,100938.03
2022-08-25T17:27:55.591Z,100948.59
2022-08-25T17:30:34.372Z,100947.69
2022-08-25T17:33:15.228Z,100949.78
2022-08-25T17:35:56.862Z,100944.31
2022-08-25T17:38:37.574Z,100943.91
2022-08-25T17:41:20.705Z,100945.25
2022-08-25T17:44:01.128Z,100937.59
2022-08-25T17:46:44.774Z,100938.97
2022-08-25T17:49:25.682Z,100944.41
2022-08-25T17:52:05.613Z,100938.69
2022-08-25T17:54:44.941Z,100944.66
2022-08-25T17:57:28.760Z,100936.94
2022-08-25T18:00:13.430Z,100943.97
2022-08-25T18:02:53.988Z,100939.00
2022-08-25T18:05:34.107Z,100952.66
2022-08-25T18:08:14.523Z,100950.13
2022-08-25T18:10:53.754Z,100955.44
2022-08-25T18:13:35.490Z,100958.44
2022-08-25T18:16:18.209Z,100954.22
2022-08-25T18:18:57.606Z,100955.06
2022-08-25T18:21:37.692Z,100953.91
2022-08-25T18:24:16.564Z,100959.47
2022-08-25T18:26:57.111Z,100955.91
2022-08-25T18:29:41.297Z,100956.91
2022-08-25T18:32:22.482Z,100962.94
2022-08-25T18:35:16.775Z,100950.91
2022-08-25T18:38:19.745Z,100959.59
2022-08-25T18:41:01.725Z,100963.09
2022-08-25T18:43:40.890Z,100966.66
2022-08-25T18:46:22.563Z,100959.22
2022-08-25T18:49:15.709Z,100967.34
2022-08-25T18:51:55.337Z,100965.13
2022-08-25T18:54:35.946Z,100964.28
2022-08-25T18:57:16.588Z,100961.50
2022-08-25T18:59:56.379Z,100960.53
2022-08-25T19:02:36.747Z,100958.31
2022-08-25T19:05:20.365Z,100963.50
2022-08-25T19:08:01.318Z,100961.34
2022-08-25T19:10:47.386Z,100966.91
2022-08-25T19:13:29.744Z,100957.31
2022-08-25T19:16:13.799Z,100966.41
2022-08-25T19:18:59.413Z,100968.63
2022-08-25T19:21:44.283Z,100962.41
2022-08-25T19:24:29.704Z,100954.59
2022-08-25T19:27:12.911Z,100958.28
2022-08-25T19:29:54.657Z,100962.50
2022-08-25T19:32:34.047Z,100958.97
2022-08-25T19:35:19.628Z,100963.34
2022-08-25T19:37:59.943Z,100967.22
2022-08-25T19:40:38.884Z,100962.09
2022-08-25T19:43:18.512Z,100966.81
2022-08-25T19:45:58.290Z,100967.13
2022-08-25T19:48:36.636Z,100956.16
2022-08-25T19:51:19.421Z,100962.00
2022-08-25T19:54:02.922Z,100964.63
2022-08-25T19:56:54.898Z,100964.78
2022-08-25T19:59:43.179Z,100963.97
2022-08-25T20:02:29.588Z,100968.69
2022-08-25T20:05:13.251Z,100969.53
2022-08-25T20:07:56.820Z,100968.59
2022-08-25T20:10:41.851Z,100965.88
2022-08-25T20:13:21.158Z,100976.19
2022-08-25T20:16:03.051Z,100978.00
2022-08-25T20:18:47.557Z,100974.22
2022-08-25T20:21:28.273Z,100980.97
2022-08-25T20:24:27.472Z,100974.22
2022-08-25T20:27:09.029Z,100971.81
2022-08-25T20:29:47.783Z,100973.50
2022-08-25T20:32:28.937Z,100970.66
2022-08-25T20:35:13.060Z,100970.94
2022-08-25T20:37:53.104Z,100970.69
2022-08-25T20:40:33.461Z,100974.81
2022-08-25T20:43:14.627Z,100977.53
2022-08-25T20:46:01.365Z,100968.13
2022-08-25T20:48:41.433Z,100970.69
2022-08-25T20:51:23.542Z,100973.19
2022-08-25T20:54:01.463Z,100969.19
2022-08-25T20:56:40.886Z,100977.19
2022-08-25T20:59:21.714Z,100975.44
2022-08-25T21:02:00.912Z,100973.56
2022-08-25T21:04:50.272Z,100977.09
2022-08-25T21:07:29.789Z,100973.09
2022-08-25T21:10:14.443Z,100968.25
2022-08-25T21:12:54.152Z,100969.75
2022-08-25T21:15:33.998Z,100974.44
2022-08-25T21:18:12.522Z,100975.03
2022-08-25T21:20:52.056Z,100971.72
2022-08-25T21:23:31.794Z,100971.25
2022-08-25T21:26:15.349Z,100966.06
2022-08-25T21:29:15.511Z,100971.72
2022-08-25T21:31:54.224Z,100973.03
2022-08-25T21:34:35.007Z,100975.75
2022-08-25T21:37:16.944Z,100976.56
2022-08-25T21:39:56.318Z,100969.97
2022-08-25T21:42:36.058Z,100973.50
2022-08-25T21:45:14.655Z,100974.22
2022-08-25T21:47:54.835Z,100969.84
2022-08-25T21:50:35.582Z,100971.97
2022-08-25T21:53:15.359Z,100971.81
2022-08-25T21:55:57.099Z,100968.88
2022-08-25T21:58:36.248Z,100962.47
2022-08-25T22:01:16.692Z,100957.19
2022-08-25T22:04:02.164Z,100959.44
2022-08-25T22:06:43.277Z,100964.88
2022-08-25T22:09:24.164Z,100959.66
2022-08-25T22:12:04.400Z,100959.53
2022-08-25T22:14:45.302Z,100955.38
2022-08-25T22:17:24.777Z,100956.44
2022-08-25T22:20:06.639Z,100950.19
2022-08-25T22:22:49.543Z,100942.75
2022-08-25T22:25:29.055Z,100946.78
2022-08-25T22:28:15.013Z,100944.75
2022-08-25T22:30:54.352Z,100941.44
2022-08-25T22:33:36.172Z,100935.88
2022-08-25T22:36:21.657Z,100943.06
2022-08-25T22:39:01.105Z,100939.97
2022-08-25T22:41:42.749Z,100937.34
2022-08-25T22:44:25.021Z,100943.47
2022-08-25T22:47:05.567Z,100942.50
2022-08-25T22:49:46.978Z,100941.50
2022-08-25T22:52:33.300Z,100940.31
2022-08-25T22:55:12.968Z,100936.66
2022-08-25T22:57:54.804Z,100940.06
2022-08-25T23:00:35.279Z,100933.66
2022-08-25T23:03:17.350Z,100934.56
2022-08-25T23:05:58.109Z,100938.34
2022-08-25T23:08:40.730Z,100935.72
2022-08-25T23:11:19.915Z,100935.31
2022-08-25T23:14:02.141Z,100937.91
2022-08-25T23:16:44.509Z,100927.97
2022-08-25T23:19:23.926Z,100927.78
2022-08-25T23:22:13.727Z,100930.94
2022-08-25T23:24:56.780Z,100936.22
2022-08-25T23:27:37.494Z,100928.56
2022-08-25T23:30:19.490Z,100921.94
2022-08-25T23:33:01.275Z,100926.94
2022-08-25T23:35:41.599Z,100923.66
2022-08-25T23:38:23.405Z,100920.09
2022-08-25T23:41:06.878Z,100915.16
2022-08-25T23:43:47.843Z,100914.31
2022-08-25T23:46:29.907Z,100913.94
2022-08-25T23:49:10.695Z,100916.19
2022-08-25T23:51:52.787Z,100912.28
2022-08-25T23:54:33.051Z,100911.69
2022-08-25T23:57:12.866Z,100912.75
2022-08-25T23:59:51.687Z,100912.75
